ADDS METAR Data INFO
IDs: Format: Raw Decoded Include TAF

Data at: 0715 UTC 24 Nov 2017

METAR for:KAXV (Wapakoneta/Armstrong, OH, US)
Text:KAXV 240653Z AUTO 18005KT 7SM CLR 00/M02 A2997 RMK AO2
Temperature: 0.0°C ( 32°F)
Dewpoint: -2.0°C ( 28°F) [RH = 86%]
Pressure (altimeter):29.97 inches Hg (1015.0 mb)
Winds:from the S (180 degrees) at 6 MPH (5 knots; 2.6 m/s)
Visibility: 7 sm ( 11 km)
Ceiling:at least 12,000 feet AGL
Clouds:sky clear below 12,000 feet AGL
QC Flag:automated observation with no human augmentation